sensor_id;sensor_type;location;lat;lon;timestamp;pressure;altitude;pressure_sealevel;temperature;humidity
66742;BME280;53654;54.152;19.432;2023-07-29T00:02:15;100734.52;;;14.06;86.10
66742;BME280;53654;54.152;19.432;2023-07-29T00:04:43;100734.94;;;14.02;86.36
66742;BME280;53654;54.152;19.432;2023-07-29T00:07:11;100736.20;;;14.01;86.58
66742;BME280;53654;54.152;19.432;2023-07-29T00:09:39;100735.16;;;14.00;86.62
66742;BME280;53654;54.152;19.432;2023-07-29T00:12:08;100734.65;;;13.99;86.89
66742;BME280;53654;54.152;19.432;2023-07-29T00:14:35;100737.45;;;14.00;87.05
66742;BME280;53654;54.152;19.432;2023-07-29T00:17:04;100735.52;;;14.00;87.14
66742;BME280;53654;54.152;19.432;2023-07-29T00:19:32;100737.09;;;14.00;86.97
66742;BME280;53654;54.152;19.432;2023-07-29T00:22:01;100735.53;;;14.00;86.88
66742;BME280;53654;54.152;19.432;2023-07-29T00:24:29;100740.29;;;13.98;87.01
66742;BME280;53654;54.152;19.432;2023-07-29T00:26:57;100745.05;;;13.97;86.94
66742;BME280;53654;54.152;19.432;2023-07-29T00:29:25;100745.10;;;13.95;86.95
66742;BME280;53654;54.152;19.432;2023-07-29T00:31:53;100746.54;;;13.94;87.10
66742;BME280;53654;54.152;19.432;2023-07-29T00:34:21;100745.70;;;13.92;87.00
66742;BME280;53654;54.152;19.432;2023-07-29T00:36:49;100751.46;;;13.93;86.87
66742;BME280;53654;54.152;19.432;2023-07-29T00:39:19;100754.64;;;13.92;86.82
66742;BME280;53654;54.152;19.432;2023-07-29T00:41:47;100758.20;;;13.90;86.69
66742;BME280;53654;54.152;19.432;2023-07-29T00:44:15;100762.44;;;13.88;86.35
66742;BME280;53654;54.152;19.432;2023-07-29T00:46:45;100760.02;;;13.86;86.13
66742;BME280;53654;54.152;19.432;2023-07-29T00:49:14;100758.84;;;13.84;86.15
66742;BME280;53654;54.152;19.432;2023-07-29T00:51:43;100761.52;;;13.81;86.12
66742;BME280;53654;54.152;19.432;2023-07-29T00:54:11;100765.27;;;13.79;85.98
66742;BME280;53654;54.152;19.432;2023-07-29T00:56:40;100768.44;;;13.77;86.02
66742;BME280;53654;54.152;19.432;2023-07-29T00:59:08;100766.36;;;13.76;85.95
66742;BME280;53654;54.152;19.432;2023-07-29T01:01:36;100768.64;;;13.76;85.84
66742;BME280;53654;54.152;19.432;2023-07-29T01:04:05;100772.52;;;13.75;86.06
66742;BME280;53654;54.152;19.432;2023-07-29T01:12:01;100772.35;;;13.67;87.91
66742;BME280;53654;54.152;19.432;2023-07-29T01:14:45;100767.46;;;13.66;88.63
66742;BME280;53654;54.152;19.432;2023-07-29T01:17:39;100769.08;;;13.64;88.93
66742;BME280;53654;54.152;19.432;2023-07-29T01:20:11;100770.36;;;13.61;89.41
66742;BME280;53654;54.152;19.432;2023-07-29T01:22:42;100762.69;;;13.60;89.74
66742;BME280;53654;54.152;19.432;2023-07-29T01:25:11;100761.29;;;13.60;89.86
66742;BME280;53654;54.152;19.432;2023-07-29T01:27:41;100758.69;;;13.59;90.14
66742;BME280;53654;54.152;19.432;2023-07-29T01:30:10;100763.30;;;13.55;90.32
66742;BME280;53654;54.152;19.432;2023-07-29T01:37:50;100764.92;;;13.44;91.64
66742;BME280;53654;54.152;19.432;2023-07-29T01:40:21;100769.16;;;13.43;92.08
66742;BME280;53654;54.152;19.432;2023-07-29T01:42:50;100770.02;;;13.43;92.52
66742;BME280;53654;54.152;19.432;2023-07-29T01:45:23;100772.98;;;13.45;92.69
66742;BME280;53654;54.152;19.432;2023-07-29T01:47:52;100775.24;;;13.46;92.90
66742;BME280;53654;54.152;19.432;2023-07-29T01:50:21;100774.72;;;13.46;92.91
66742;BME280;53654;54.152;19.432;2023-07-29T01:52:49;100776.60;;;13.48;93.23
66742;BME280;53654;54.152;19.432;2023-07-29T01:55:17;100783.05;;;13.50;93.33
66742;BME280;53654;54.152;19.432;2023-07-29T01:57:46;100784.25;;;13.51;93.32
66742;BME280;53654;54.152;19.432;2023-07-29T02:00:15;100785.27;;;13.52;93.29
66742;BME280;53654;54.152;19.432;2023-07-29T02:02:45;100791.05;;;13.53;93.04
66742;BME280;53654;54.152;19.432;2023-07-29T02:05:13;100790.15;;;13.54;92.86
66742;BME280;53654;54.152;19.432;2023-07-29T02:07:41;100791.86;;;13.56;92.87
66742;BME280;53654;54.152;19.432;2023-07-29T02:10:10;100796.73;;;13.58;92.75
66742;BME280;53654;54.152;19.432;2023-07-29T02:12:38;100793.56;;;13.59;92.55
66742;BME280;53654;54.152;19.432;2023-07-29T02:15:07;100796.16;;;13.60;92.37
66742;BME280;53654;54.152;19.432;2023-07-29T02:17:36;100792.66;;;13.60;92.44
66742;BME280;53654;54.152;19.432;2023-07-29T02:20:05;100790.73;;;13.59;92.12
66742;BME280;53654;54.152;19.432;2023-07-29T02:22:33;100793.22;;;13.58;91.74
66742;BME280;53654;54.152;19.432;2023-07-29T02:25:02;100794.83;;;13.57;91.55
66742;BME280;53654;54.152;19.432;2023-07-29T02:27:31;100791.19;;;13.54;91.50
66742;BME280;53654;54.152;19.432;2023-07-29T02:29:59;100793.67;;;13.52;91.69
66742;BME280;53654;54.152;19.432;2023-07-29T02:32:28;100798.83;;;13.50;91.74
66742;BME280;53654;54.152;19.432;2023-07-29T02:34:56;100804.30;;;13.47;91.91
66742;BME280;53654;54.152;19.432;2023-07-29T02:37:24;100801.02;;;13.45;92.13
66742;BME280;53654;54.152;19.432;2023-07-29T02:39:53;100807.58;;;13.41;92.18
66742;BME280;53654;54.152;19.432;2023-07-29T02:42:21;100809.52;;;13.40;92.33
66742;BME280;53654;54.152;19.432;2023-07-29T02:44:49;100808.86;;;13.38;92.50
66742;BME280;53654;54.152;19.432;2023-07-29T02:47:17;100812.73;;;13.38;92.42
66742;BME280;53654;54.152;19.432;2023-07-29T02:49:45;100814.66;;;13.37;92.51
66742;BME280;53654;54.152;19.432;2023-07-29T02:52:14;100815.70;;;13.38;92.65
66742;BME280;53654;54.152;19.432;2023-07-29T02:54:43;100814.98;;;13.38;92.67
66742;BME280;53654;54.152;19.432;2023-07-29T02:57:13;100817.80;;;13.37;92.46
66742;BME280;53654;54.152;19.432;2023-07-29T02:59:41;100814.84;;;13.37;92.42
66742;BME280;53654;54.152;19.432;2023-07-29T03:02:09;100815.94;;;13.35;92.02
66742;BME280;53654;54.152;19.432;2023-07-29T03:04:37;100819.61;;;13.35;91.79
66742;BME280;53654;54.152;19.432;2023-07-29T03:07:06;100818.90;;;13.35;91.63
66742;BME280;53654;54.152;19.432;2023-07-29T03:09:34;100821.16;;;13.37;91.24
66742;BME280;53654;54.152;19.432;2023-07-29T03:12:02;100818.53;;;13.36;90.76
66742;BME280;53654;54.152;19.432;2023-07-29T03:14:30;100818.20;;;13.36;90.46
66742;BME280;53654;54.152;19.432;2023-07-29T03:17:02;100819.25;;;13.36;90.26
66742;BME280;53654;54.152;19.432;2023-07-29T03:19:32;100822.23;;;13.35;90.24
66742;BME280;53654;54.152;19.432;2023-07-29T03:22:00;100824.14;;;13.37;90.05
66742;BME280;53654;54.152;19.432;2023-07-29T03:24:28;100818.53;;;13.37;89.85
66742;BME280;53654;54.152;19.432;2023-07-29T03:26:56;100820.81;;;13.36;89.67
66742;BME280;53654;54.152;19.432;2023-07-29T03:29:24;100825.70;;;13.37;89.53
66742;BME280;53654;54.152;19.432;2023-07-29T03:31:52;100825.88;;;13.38;89.55
66742;BME280;53654;54.152;19.432;2023-07-29T03:34:21;100830.39;;;13.39;89.48
66742;BME280;53654;54.152;19.432;2023-07-29T03:36:49;100835.77;;;13.41;89.29
66742;BME280;53654;54.152;19.432;2023-07-29T03:39:18;100833.30;;;13.43;89.09
66742;BME280;53654;54.152;19.432;2023-07-29T03:41:46;100842.55;;;13.45;89.14
66742;BME280;53654;54.152;19.432;2023-07-29T03:44:14;100846.88;;;13.48;89.35
66742;BME280;53654;54.152;19.432;2023-07-29T03:46:43;100853.64;;;13.51;89.46
66742;BME280;53654;54.152;19.432;2023-07-29T03:49:11;100857.58;;;13.56;89.61
66742;BME280;53654;54.152;19.432;2023-07-29T03:51:39;100853.83;;;13.60;89.29
66742;BME280;53654;54.152;19.432;2023-07-29T03:54:08;100857.79;;;13.64;88.90
66742;BME280;53654;54.152;19.432;2023-07-29T03:56:36;100859.27;;;13.68;88.87
66742;BME280;53654;54.152;19.432;2023-07-29T03:59:05;100857.07;;;13.73;88.79
66742;BME280;53654;54.152;19.432;2023-07-29T04:01:34;100857.84;;;13.78;88.74
66742;BME280;53654;54.152;19.432;2023-07-29T04:04:02;100865.09;;;13.84;88.79
66742;BME280;53654;54.152;19.432;2023-07-29T04:06:31;100858.67;;;13.90;88.63
66742;BME280;53654;54.152;19.432;2023-07-29T04:09:00;100858.86;;;13.98;88.57
66742;BME280;53654;54.152;19.432;2023-07-29T04:11:29;100859.08;;;14.04;88.53
66742;BME280;53654;54.152;19.432;2023-07-29T04:13:57;100856.11;;;14.12;88.57
66742;BME280;53654;54.152;19.432;2023-07-29T04:16:25;100854.17;;;14.28;88.88
66742;BME280;53654;54.152;19.432;2023-07-29T04:18:54;100853.44;;;14.69;89.00
66742;BME280;53654;54.152;19.432;2023-07-29T04:21:22;100846.32;;;15.29;88.02
66742;BME280;53654;54.152;19.432;2023-07-29T04:23:50;100846.63;;;15.96;85.63
66742;BME280;53654;54.152;19.432;2023-07-29T04:26:19;100845.77;;;16.65;82.70
66742;BME280;53654;54.152;19.432;2023-07-29T04:28:47;100852.10;;;17.34;79.70
66742;BME280;53654;54.152;19.432;2023-07-29T04:31:16;100850.43;;;18.01;76.80
66742;BME280;53654;54.152;19.432;2023-07-29T04:33:44;100847.29;;;18.68;73.58
66742;BME280;53654;54.152;19.432;2023-07-29T04:36:13;100847.80;;;19.07;71.07
66742;BME280;53654;54.152;19.432;2023-07-29T04:38:43;100845.81;;;19.50;69.74
66742;BME280;53654;54.152;19.432;2023-07-29T04:41:11;100843.63;;;20.02;67.72
66742;BME280;53654;54.152;19.432;2023-07-29T04:43:39;100841.69;;;20.48;66.11
66742;BME280;53654;54.152;19.432;2023-07-29T04:46:08;100846.47;;;21.06;64.27
66742;BME280;53654;54.152;19.432;2023-07-29T04:48:37;100844.75;;;21.50;62.61
66742;BME280;53654;54.152;19.432;2023-07-29T04:51:05;100845.67;;;21.57;61.54
66742;BME280;53654;54.152;19.432;2023-07-29T04:53:33;100842.54;;;21.89;60.63
66742;BME280;53654;54.152;19.432;2023-07-29T04:56:02;100842.46;;;22.35;59.39
66742;BME280;53654;54.152;19.432;2023-07-29T04:58:31;100838.15;;;22.83;58.10
66742;BME280;53654;54.152;19.432;2023-07-29T05:01:03;100838.35;;;23.28;56.30
66742;BME280;53654;54.152;19.432;2023-07-29T05:03:32;100841.64;;;23.63;54.81
66742;BME280;53654;54.152;19.432;2023-07-29T05:06:00;100843.28;;;23.96;53.71
66742;BME280;53654;54.152;19.432;2023-07-29T05:08:28;100851.03;;;24.31;52.94
66742;BME280;53654;54.152;19.432;2023-07-29T05:10:56;100845.80;;;24.60;52.05
66742;BME280;53654;54.152;19.432;2023-07-29T05:13:25;100851.64;;;24.91;51.03
66742;BME280;53654;54.152;19.432;2023-07-29T05:15:53;100850.86;;;25.16;50.54
66742;BME280;53654;54.152;19.432;2023-07-29T05:18:21;100847.80;;;25.29;50.26
66742;BME280;53654;54.152;19.432;2023-07-29T05:20:50;100845.61;;;25.32;49.96
66742;BME280;53654;54.152;19.432;2023-07-29T05:23:18;100845.96;;;25.25;49.94
66742;BME280;53654;54.152;19.432;2023-07-29T05:25:46;100847.41;;;25.32;49.61
66742;BME280;53654;54.152;19.432;2023-07-29T05:28:14;100845.63;;;25.45;49.30
66742;BME280;53654;54.152;19.432;2023-07-29T05:30:43;100844.31;;;25.77;48.91
66742;BME280;53654;54.152;19.432;2023-07-29T05:33:12;100840.69;;;26.11;48.54
66742;BME280;53654;54.152;19.432;2023-07-29T05:35:40;100841.20;;;26.41;47.66
66742;BME280;53654;54.152;19.432;2023-07-29T05:38:08;100834.06;;;26.75;47.20
66742;BME280;53654;54.152;19.432;2023-07-29T05:40:37;100836.92;;;27.08;46.46
66742;BME280;53654;54.152;19.432;2023-07-29T05:43:06;100836.71;;;27.29;45.56
66742;BME280;53654;54.152;19.432;2023-07-29T05:45:34;100841.30;;;27.42;44.97
66742;BME280;53654;54.152;19.432;2023-07-29T05:48:02;100846.05;;;27.52;45.03
66742;BME280;53654;54.152;19.432;2023-07-29T05:50:30;100845.50;;;27.43;44.81
66742;BME280;53654;54.152;19.432;2023-07-29T05:52:58;100850.11;;;27.21;45.20
66742;BME280;53654;54.152;19.432;2023-07-29T05:55:26;100848.47;;;26.97;46.06
66742;BME280;53654;54.152;19.432;2023-07-29T05:57:54;100846.61;;;26.77;46.50
66742;BME280;53654;54.152;19.432;2023-07-29T06:00:23;100847.00;;;26.54;47.36
66742;BME280;53654;54.152;19.432;2023-07-29T06:02:51;100842.05;;;26.44;46.91
66742;BME280;53654;54.152;19.432;2023-07-29T06:05:20;100842.98;;;26.60;46.79
66742;BME280;53654;54.152;19.432;2023-07-29T06:07:48;100843.21;;;26.93;46.38
66742;BME280;53654;54.152;19.432;2023-07-29T06:10:16;100844.99;;;27.29;46.19
66742;BME280;53654;54.152;19.432;2023-07-29T06:12:48;100843.42;;;27.65;45.46
66742;BME280;53654;54.152;19.432;2023-07-29T06:15:16;100843.00;;;28.00;44.79
66742;BME280;53654;54.152;19.432;2023-07-29T06:17:44;100844.04;;;28.32;44.08
66742;BME280;53654;54.152;19.432;2023-07-29T06:20:12;100841.28;;;28.52;43.16
66742;BME280;53654;54.152;19.432;2023-07-29T06:22:41;100839.10;;;28.75;42.96
66742;BME280;53654;54.152;19.432;2023-07-29T06:25:09;100841.80;;;28.94;42.24
66742;BME280;53654;54.152;19.432;2023-07-29T06:27:38;100841.24;;;29.09;42.12
66742;BME280;53654;54.152;19.432;2023-07-29T06:30:07;100844.17;;;29.25;41.87
66742;BME280;53654;54.152;19.432;2023-07-29T06:32:35;100847.59;;;29.42;41.94
66742;BME280;53654;54.152;19.432;2023-07-29T06:35:04;100849.88;;;29.43;42.07
66742;BME280;53654;54.152;19.432;2023-07-29T06:37:32;100852.38;;;29.19;41.89
66742;BME280;53654;54.152;19.432;2023-07-29T06:40:01;100851.09;;;28.75;42.20
66742;BME280;53654;54.152;19.432;2023-07-29T06:42:29;100855.27;;;28.37;43.92
66742;BME280;53654;54.152;19.432;2023-07-29T06:44:57;100854.64;;;28.09;43.83
66742;BME280;53654;54.152;19.432;2023-07-29T06:47:26;100855.83;;;27.81;45.13
66742;BME280;53654;54.152;19.432;2023-07-29T06:49:54;100855.09;;;27.58;45.61
66742;BME280;53654;54.152;19.432;2023-07-29T06:52:22;100857.66;;;27.48;46.14
66742;BME280;53654;54.152;19.432;2023-07-29T06:54:50;100858.65;;;27.31;46.51
66742;BME280;53654;54.152;19.432;2023-07-29T06:57:19;100864.70;;;27.08;46.65
66742;BME280;53654;54.152;19.432;2023-07-29T06:59:47;100860.88;;;26.84;47.49
66742;BME280;53654;54.152;19.432;2023-07-29T07:02:15;100864.42;;;26.71;47.23
66742;BME280;53654;54.152;19.432;2023-07-29T07:04:43;100861.95;;;26.65;46.78
66742;BME280;53654;54.152;19.432;2023-07-29T07:07:11;100857.63;;;26.69;46.28
66742;BME280;53654;54.152;19.432;2023-07-29T07:09:40;100852.34;;;26.62;46.57
66742;BME280;53654;54.152;19.432;2023-07-29T07:12:08;100851.66;;;26.54;47.07
66742;BME280;53654;54.152;19.432;2023-07-29T07:14:37;100848.80;;;26.45;47.13
66742;BME280;53654;54.152;19.432;2023-07-29T07:17:05;100849.81;;;26.28;47.04
66742;BME280;53654;54.152;19.432;2023-07-29T07:19:33;100839.23;;;26.11;48.05
66742;BME280;53654;54.152;19.432;2023-07-29T07:22:01;100840.98;;;26.02;48.61
66742;BME280;53654;54.152;19.432;2023-07-29T07:24:29;100845.98;;;25.94;48.83
66742;BME280;53654;54.152;19.432;2023-07-29T07:26:57;100843.02;;;25.83;48.75
66742;BME280;53654;54.152;19.432;2023-07-29T07:29:25;100842.98;;;25.71;48.26
66742;BME280;53654;54.152;19.432;2023-07-29T07:31:54;100837.77;;;25.58;48.06
66742;BME280;53654;54.152;19.432;2023-07-29T07:34:22;100835.46;;;25.48;49.09
66742;BME280;53654;54.152;19.432;2023-07-29T07:36:50;100834.67;;;25.38;48.74
66742;BME280;53654;54.152;19.432;2023-07-29T07:39:18;100835.84;;;25.26;48.61
66742;BME280;53654;54.152;19.432;2023-07-29T07:41:46;100834.05;;;25.19;47.88
66742;BME280;53654;54.152;19.432;2023-07-29T07:44:14;100834.84;;;25.13;47.62
66742;BME280;53654;54.152;19.432;2023-07-29T07:46:45;100831.25;;;24.97;48.00
66742;BME280;53654;54.152;19.432;2023-07-29T07:49:14;100832.23;;;24.92;48.96
66742;BME280;53654;54.152;19.432;2023-07-29T07:51:43;100832.04;;;24.93;48.57
66742;BME280;53654;54.152;19.432;2023-07-29T07:54:11;100831.64;;;24.94;48.02
66742;BME280;53654;54.152;19.432;2023-07-29T07:56:39;100824.64;;;24.91;48.39
66742;BME280;53654;54.152;19.432;2023-07-29T07:59:08;100820.80;;;24.95;48.77
66742;BME280;53654;54.152;19.432;2023-07-29T08:01:38;100828.60;;;24.96;48.66
66742;BME280;53654;54.152;19.432;2023-07-29T08:04:06;100832.34;;;24.96;48.88
66742;BME280;53654;54.152;19.432;2023-07-29T08:06:35;100832.95;;;24.98;47.42
66742;BME280;53654;54.152;19.432;2023-07-29T08:09:03;100833.05;;;24.99;46.35
66742;BME280;53654;54.152;19.432;2023-07-29T08:11:32;100829.70;;;25.01;47.11
66742;BME280;53654;54.152;19.432;2023-07-29T08:14:00;100830.81;;;25.03;46.92
66742;BME280;53654;54.152;19.432;2023-07-29T08:16:28;100829.60;;;25.03;46.26
66742;BME280;53654;54.152;19.432;2023-07-29T08:18:56;100822.14;;;25.02;46.48
66742;BME280;53654;54.152;19.432;2023-07-29T08:21:24;100823.77;;;25.02;45.44
66742;BME280;53654;54.152;19.432;2023-07-29T08:23:52;100820.05;;;25.04;44.80
66742;BME280;53654;54.152;19.432;2023-07-29T08:26:20;100816.67;;;25.09;45.01
66742;BME280;53654;54.152;19.432;2023-07-29T08:28:49;100815.97;;;25.14;45.10
66742;BME280;53654;54.152;19.432;2023-07-29T08:31:21;100818.04;;;25.18;45.28
66742;BME280;53654;54.152;19.432;2023-07-29T08:33:49;100817.46;;;25.19;43.95
66742;BME280;53654;54.152;19.432;2023-07-29T08:36:17;100812.14;;;25.15;43.98
66742;BME280;53654;54.152;19.432;2023-07-29T08:38:46;100813.64;;;25.12;44.51
66742;BME280;53654;54.152;19.432;2023-07-29T08:41:21;100814.05;;;25.14;44.10
66742;BME280;53654;54.152;19.432;2023-07-29T08:44:06;100815.05;;;25.12;43.97
66742;BME280;53654;54.152;19.432;2023-07-29T08:46:39;100810.17;;;25.16;44.18
66742;BME280;53654;54.152;19.432;2023-07-29T08:49:11;100804.44;;;25.18;43.77
66742;BME280;53654;54.152;19.432;2023-07-29T08:51:46;100803.02;;;25.21;43.44
66742;BME280;53654;54.152;19.432;2023-07-29T08:54:15;100801.95;;;25.26;43.56
66742;BME280;53654;54.152;19.432;2023-07-29T08:56:43;100798.59;;;25.31;42.56
66742;BME280;53654;54.152;19.432;2023-07-29T08:59:13;100802.41;;;25.27;41.36
66742;BME280;53654;54.152;19.432;2023-07-29T09:01:42;100799.08;;;25.31;41.91
66742;BME280;53654;54.152;19.432;2023-07-29T09:04:10;100797.92;;;25.38;41.48
66742;BME280;53654;54.152;19.432;2023-07-29T09:06:39;100802.25;;;25.50;41.83
66742;BME280;53654;54.152;19.432;2023-07-29T09:09:09;100798.79;;;25.69;41.80
66742;BME280;53654;54.152;19.432;2023-07-29T09:11:38;100795.81;;;25.86;40.24
66742;BME280;53654;54.152;19.432;2023-07-29T09:14:07;100797.77;;;25.96;39.33
66742;BME280;53654;54.152;19.432;2023-07-29T09:16:36;100793.96;;;26.04;39.64
66742;BME280;53654;54.152;19.432;2023-07-29T09:19:07;100793.05;;;26.20;39.95
66742;BME280;53654;54.152;19.432;2023-07-29T09:21:39;100789.61;;;26.37;39.57
66742;BME280;53654;54.152;19.432;2023-07-29T09:24:08;100791.02;;;26.49;38.39
66742;BME280;53654;54.152;19.432;2023-07-29T09:26:37;100790.09;;;26.60;38.31
66742;BME280;53654;54.152;19.432;2023-07-29T09:29:06;100785.09;;;26.64;37.73
66742;BME280;53654;54.152;19.432;2023-07-29T09:31:34;100792.52;;;26.73;38.19
66742;BME280;53654;54.152;19.432;2023-07-29T09:34:04;100793.17;;;26.81;37.48
66742;BME280;53654;54.152;19.432;2023-07-29T09:36:33;100796.20;;;26.92;37.78
66742;BME280;53654;54.152;19.432;2023-07-29T09:39:02;100790.90;;;27.08;38.11
66742;BME280;53654;54.152;19.432;2023-07-29T09:41:34;100789.78;;;27.20;36.33
66742;BME280;53654;54.152;19.432;2023-07-29T09:44:03;100788.67;;;27.23;36.69
66742;BME280;53654;54.152;19.432;2023-07-29T09:46:36;100786.92;;;27.29;36.25
66742;BME280;53654;54.152;19.432;2023-07-29T09:49:07;100782.02;;;27.35;35.32
66742;BME280;53654;54.152;19.432;2023-07-29T09:51:39;100784.68;;;27.49;35.70
66742;BME280;53654;54.152;19.432;2023-07-29T09:54:08;100786.96;;;27.61;35.19
66742;BME280;53654;54.152;19.432;2023-07-29T09:56:42;100789.55;;;27.71;35.25
66742;BME280;53654;54.152;19.432;2023-07-29T09:59:13;100782.98;;;27.79;35.84
66742;BME280;53654;54.152;19.432;2023-07-29T10:01:47;100788.27;;;27.83;35.07
66742;BME280;53654;54.152;19.432;2023-07-29T10:04:15;100784.36;;;27.91;35.48
66742;BME280;53654;54.152;19.432;2023-07-29T10:06:46;100782.11;;;28.02;34.28
66742;BME280;53654;54.152;19.432;2023-07-29T10:09:15;100781.85;;;28.09;34.21
66742;BME280;53654;54.152;19.432;2023-07-29T10:11:44;100780.82;;;28.11;33.69
66742;BME280;53654;54.152;19.432;2023-07-29T10:14:12;100778.29;;;28.13;34.59
66742;BME280;53654;54.152;19.432;2023-07-29T10:16:42;100782.63;;;28.15;33.67
66742;BME280;53654;54.152;19.432;2023-07-29T10:19:13;100780.94;;;28.14;33.77
66742;BME280;53654;54.152;19.432;2023-07-29T10:21:43;100778.20;;;28.14;34.28
66742;BME280;53654;54.152;19.432;2023-07-29T10:24:15;100780.38;;;28.21;33.77
66742;BME280;53654;54.152;19.432;2023-07-29T10:26:49;100778.28;;;28.27;33.50
66742;BME280;53654;54.152;19.432;2023-07-29T10:29:19;100781.30;;;28.20;32.68
66742;BME280;53654;54.152;19.432;2023-07-29T10:31:52;100780.46;;;28.04;33.03
66742;BME280;53654;54.152;19.432;2023-07-29T10:34:21;100780.96;;;27.91;33.00
66742;BME280;53654;54.152;19.432;2023-07-29T10:36:51;100779.65;;;27.83;32.84
66742;BME280;53654;54.152;19.432;2023-07-29T10:39:20;100771.39;;;27.81;32.06
66742;BME280;53654;54.152;19.432;2023-07-29T10:42:02;100767.04;;;27.84;30.96
66742;BME280;53654;54.152;19.432;2023-07-29T10:49:46;100758.40;;;27.88;31.40
66742;BME280;53654;54.152;19.432;2023-07-29T10:52:16;100759.36;;;27.88;32.24
66742;BME280;53654;54.152;19.432;2023-07-29T10:54:46;100757.50;;;27.84;32.36
66742;BME280;53654;54.152;19.432;2023-07-29T10:57:15;100754.23;;;27.80;32.18
66742;BME280;53654;54.152;19.432;2023-07-29T10:59:54;100749.91;;;27.70;31.87
66742;BME280;53654;54.152;19.432;2023-07-29T11:02:36;100742.64;;;27.53;32.26
66742;BME280;53654;54.152;19.432;2023-07-29T11:05:17;100739.36;;;27.42;34.03
66742;BME280;53654;54.152;19.432;2023-07-29T11:07:47;100742.99;;;27.32;33.29
66742;BME280;53654;54.152;19.432;2023-07-29T11:10:16;100741.25;;;27.13;33.40
66742;BME280;53654;54.152;19.432;2023-07-29T11:12:51;100742.32;;;27.05;34.35
66742;BME280;53654;54.152;19.432;2023-07-29T11:15:22;100745.62;;;26.99;34.49
66742;BME280;53654;54.152;19.432;2023-07-29T11:17:55;100745.04;;;26.97;35.23
66742;BME280;53654;54.152;19.432;2023-07-29T11:20:31;100741.86;;;26.94;34.65
66742;BME280;53654;54.152;19.432;2023-07-29T11:23:01;100739.57;;;26.86;34.88
66742;BME280;53654;54.152;19.432;2023-07-29T11:25:31;100735.61;;;26.84;34.93
66742;BME280;53654;54.152;19.432;2023-07-29T11:28:01;100738.23;;;26.81;35.05
66742;BME280;53654;54.152;19.432;2023-07-29T11:30:33;100731.44;;;26.76;34.53
66742;BME280;53654;54.152;19.432;2023-07-29T11:33:03;100726.08;;;26.71;34.44
66742;BME280;53654;54.152;19.432;2023-07-29T11:35:32;100719.39;;;26.65;34.63
66742;BME280;53654;54.152;19.432;2023-07-29T11:38:00;100717.34;;;26.63;35.30
66742;BME280;53654;54.152;19.432;2023-07-29T11:40:29;100722.59;;;26.60;35.36
66742;BME280;53654;54.152;19.432;2023-07-29T11:42:57;100719.70;;;26.53;34.95
66742;BME280;53654;54.152;19.432;2023-07-29T11:45:26;100721.41;;;26.50;35.86
66742;BME280;53654;54.152;19.432;2023-07-29T11:48:13;100715.95;;;26.47;34.76
66742;BME280;53654;54.152;19.432;2023-07-29T11:50:45;100707.43;;;26.39;34.06
66742;BME280;53654;54.152;19.432;2023-07-29T11:53:13;100709.32;;;26.35;34.17
66742;BME280;53654;54.152;19.432;2023-07-29T11:55:44;100712.14;;;26.30;33.61
66742;BME280;53654;54.152;19.432;2023-07-29T11:58:12;100711.45;;;26.25;33.76
66742;BME280;53654;54.152;19.432;2023-07-29T12:00:40;100705.38;;;26.23;34.05
66742;BME280;53654;54.152;19.432;2023-07-29T12:03:09;100702.78;;;26.22;34.34
66742;BME280;53654;54.152;19.432;2023-07-29T12:05:39;100699.02;;;26.24;35.28
66742;BME280;53654;54.152;19.432;2023-07-29T12:08:07;100701.55;;;26.31;35.54
66742;BME280;53654;54.152;19.432;2023-07-29T12:10:36;100700.40;;;26.42;35.48
66742;BME280;53654;54.152;19.432;2023-07-29T12:13:07;100700.15;;;26.52;34.79
66742;BME280;53654;54.152;19.432;2023-07-29T12:15:37;100690.75;;;26.55;33.98
66742;BME280;53654;54.152;19.432;2023-07-29T12:18:06;100690.63;;;26.59;34.13
66742;BME280;53654;54.152;19.432;2023-07-29T12:20:34;100681.77;;;26.61;33.75
66742;BME280;53654;54.152;19.432;2023-07-29T12:23:03;100677.58;;;26.62;33.54
66742;BME280;53654;54.152;19.432;2023-07-29T12:25:34;100678.65;;;26.64;34.32
66742;BME280;53654;54.152;19.432;2023-07-29T12:28:06;100676.61;;;26.68;33.84
66742;BME280;53654;54.152;19.432;2023-07-29T12:30:41;100674.52;;;26.69;34.09
66742;BME280;53654;54.152;19.432;2023-07-29T12:33:09;100675.08;;;26.71;34.17
66742;BME280;53654;54.152;19.432;2023-07-29T12:35:38;100678.84;;;26.71;33.65
66742;BME280;53654;54.152;19.432;2023-07-29T12:38:06;100677.58;;;26.69;33.23
66742;BME280;53654;54.152;19.432;2023-07-29T12:40:38;100670.73;;;26.70;33.28
66742;BME280;53654;54.152;19.432;2023-07-29T12:43:06;100667.19;;;26.67;32.88
66742;BME280;53654;54.152;19.432;2023-07-29T12:45:37;100660.02;;;26.62;33.11
66742;BME280;53654;54.152;19.432;2023-07-29T12:48:08;100662.01;;;26.57;33.40
66742;BME280;53654;54.152;19.432;2023-07-29T12:50:37;100655.38;;;26.57;33.70
66742;BME280;53654;54.152;19.432;2023-07-29T12:53:07;100648.95;;;26.59;33.97
66742;BME280;53654;54.152;19.432;2023-07-29T12:55:38;100649.25;;;26.55;33.21
66742;BME280;53654;54.152;19.432;2023-07-29T12:58:06;100649.48;;;26.46;33.12
66742;BME280;53654;54.152;19.432;2023-07-29T13:00:34;100644.44;;;26.39;33.18
66742;BME280;53654;54.152;19.432;2023-07-29T13:03:02;100635.61;;;26.38;33.31
66742;BME280;53654;54.152;19.432;2023-07-29T13:05:33;100637.02;;;26.38;33.48
66742;BME280;53654;54.152;19.432;2023-07-29T13:08:02;100634.54;;;26.38;33.90